sensor_id;sensor_type;location;lat;lon;timestamp;P1;durP1;ratioP1;P2;durP2;ratioP2
16039;SDS011;8124;48.634;8.120;2023-05-29T00:02:04;46.17;;;40.35;;
16039;SDS011;8124;48.634;8.120;2023-05-29T00:07:08;46.22;;;41.20;;
16039;SDS011;8124;48.634;8.120;2023-05-29T00:12:11;50.88;;;40.85;;
16039;SDS011;8124;48.634;8.120;2023-05-29T00:17:15;46.90;;;40.65;;
16039;SDS011;8124;48.634;8.120;2023-05-29T00:22:19;48.42;;;41.08;;
16039;SDS011;8124;48.634;8.120;2023-05-29T00:27:22;45.35;;;40.05;;
16039;SDS011;8124;48.634;8.120;2023-05-29T00:32:25;47.88;;;40.50;;
16039;SDS011;8124;48.634;8.120;2023-05-29T00:37:30;45.85;;;39.92;;
16039;SDS011;8124;48.634;8.120;2023-05-29T00:42:33;49.03;;;41.05;;
16039;SDS011;8124;48.634;8.120;2023-05-29T00:47:36;47.10;;;40.90;;
16039;SDS011;8124;48.634;8.120;2023-05-29T00:52:41;47.85;;;40.60;;
16039;SDS011;8124;48.634;8.120;2023-05-29T00:57:45;47.58;;;40.45;;
16039;SDS011;8124;48.634;8.120;2023-05-29T01:02:49;47.72;;;40.13;;
16039;SDS011;8124;48.634;8.120;2023-05-29T01:07:55;46.30;;;40.55;;
16039;SDS011;8124;48.634;8.120;2023-05-29T01:12:59;45.28;;;39.67;;
16039;SDS011;8124;48.634;8.120;2023-05-29T01:18:16;46.35;;;39.47;;
16039;SDS011;8124;48.634;8.120;2023-05-29T01:23:40;44.70;;;39.38;;
16039;SDS011;8124;48.634;8.120;2023-05-29T01:28:56;45.17;;;39.47;;
16039;SDS011;8124;48.634;8.120;2023-05-29T01:34:02;46.33;;;39.45;;
16039;SDS011;8124;48.634;8.120;2023-05-29T01:39:05;48.10;;;39.72;;
16039;SDS011;8124;48.634;8.120;2023-05-29T01:44:10;46.28;;;40.28;;
16039;SDS011;8124;48.634;8.120;2023-05-29T01:49:14;45.95;;;39.58;;
16039;SDS011;8124;48.634;8.120;2023-05-29T01:54:18;45.42;;;39.45;;
16039;SDS011;8124;48.634;8.120;2023-05-29T01:59:23;45.30;;;39.20;;
16039;SDS011;8124;48.634;8.120;2023-05-29T02:04:27;45.90;;;39.78;;
16039;SDS011;8124;48.634;8.120;2023-05-29T02:09:31;44.70;;;39.72;;
16039;SDS011;8124;48.634;8.120;2023-05-29T02:14:35;45.28;;;39.50;;
16039;SDS011;8124;48.634;8.120;2023-05-29T02:19:38;47.25;;;39.63;;
16039;SDS011;8124;48.634;8.120;2023-05-29T02:24:42;47.10;;;39.70;;
16039;SDS011;8124;48.634;8.120;2023-05-29T02:29:46;44.50;;;39.45;;
16039;SDS011;8124;48.634;8.120;2023-05-29T02:34:49;44.65;;;39.08;;
16039;SDS011;8124;48.634;8.120;2023-05-29T02:39:53;44.88;;;38.90;;
16039;SDS011;8124;48.634;8.120;2023-05-29T02:44:57;49.95;;;40.03;;
16039;SDS011;8124;48.634;8.120;2023-05-29T02:50:00;47.50;;;42.45;;
16039;SDS011;8124;48.634;8.120;2023-05-29T02:55:05;43.88;;;38.97;;
16039;SDS011;8124;48.634;8.120;2023-05-29T03:00:10;43.92;;;39.10;;
16039;SDS011;8124;48.634;8.120;2023-05-29T03:05:15;45.60;;;39.97;;
16039;SDS011;8124;48.634;8.120;2023-05-29T03:10:18;46.20;;;39.72;;
16039;SDS011;8124;48.634;8.120;2023-05-29T03:15:23;44.83;;;38.95;;
16039;SDS011;8124;48.634;8.120;2023-05-29T03:20:26;45.35;;;39.15;;
16039;SDS011;8124;48.634;8.120;2023-05-29T03:25:32;47.88;;;39.65;;
16039;SDS011;8124;48.634;8.120;2023-05-29T03:30:36;44.00;;;38.83;;
16039;SDS011;8124;48.634;8.120;2023-05-29T03:35:39;45.53;;;39.58;;
16039;SDS011;8124;48.634;8.120;2023-05-29T03:40:43;49.35;;;40.03;;
16039;SDS011;8124;48.634;8.120;2023-05-29T03:45:47;47.03;;;39.10;;
16039;SDS011;8124;48.634;8.120;2023-05-29T03:50:50;46.63;;;39.50;;
16039;SDS011;8124;48.634;8.120;2023-05-29T03:55:59;45.58;;;38.78;;
16039;SDS011;8124;48.634;8.120;2023-05-29T04:01:04;44.08;;;38.40;;
16039;SDS011;8124;48.634;8.120;2023-05-29T04:06:07;45.67;;;38.80;;
16039;SDS011;8124;48.634;8.120;2023-05-29T04:11:26;45.38;;;39.17;;
16039;SDS011;8124;48.634;8.120;2023-05-29T04:16:31;44.65;;;38.63;;
16039;SDS011;8124;48.634;8.120;2023-05-29T04:21:34;44.65;;;38.63;;
16039;SDS011;8124;48.634;8.120;2023-05-29T04:26:37;43.00;;;38.30;;
16039;SDS011;8124;48.634;8.120;2023-05-29T04:31:44;44.28;;;38.75;;
16039;SDS011;8124;48.634;8.120;2023-05-29T04:36:49;46.42;;;39.10;;
16039;SDS011;8124;48.634;8.120;2023-05-29T04:46:59;46.17;;;39.05;;
16039;SDS011;8124;48.634;8.120;2023-05-29T04:52:05;45.45;;;38.38;;
16039;SDS011;8124;48.634;8.120;2023-05-29T04:57:08;44.17;;;38.03;;
16039;SDS011;8124;48.634;8.120;2023-05-29T05:02:14;45.60;;;38.22;;
16039;SDS011;8124;48.634;8.120;2023-05-29T05:07:17;44.20;;;38.00;;
16039;SDS011;8124;48.634;8.120;2023-05-29T05:12:20;46.10;;;38.90;;
16039;SDS011;8124;48.634;8.120;2023-05-29T05:17:25;46.42;;;38.80;;
16039;SDS011;8124;48.634;8.120;2023-05-29T05:22:28;45.58;;;39.22;;
16039;SDS011;8124;48.634;8.120;2023-05-29T05:27:32;45.45;;;38.15;;
16039;SDS011;8124;48.634;8.120;2023-05-29T05:32:38;43.72;;;38.65;;
16039;SDS011;8124;48.634;8.120;2023-05-29T05:37:41;47.35;;;39.38;;
16039;SDS011;8124;48.634;8.120;2023-05-29T05:42:45;47.15;;;38.97;;
16039;SDS011;8124;48.634;8.120;2023-05-29T05:47:49;44.50;;;38.95;;
16039;SDS011;8124;48.634;8.120;2023-05-29T05:52:56;51.05;;;38.72;;
16039;SDS011;8124;48.634;8.120;2023-05-29T05:57:59;46.88;;;38.90;;
16039;SDS011;8124;48.634;8.120;2023-05-29T06:03:04;45.22;;;38.55;;
16039;SDS011;8124;48.634;8.120;2023-05-29T06:08:26;45.15;;;39.45;;
16039;SDS011;8124;48.634;8.120;2023-05-29T06:13:30;44.80;;;39.28;;
16039;SDS011;8124;48.634;8.120;2023-05-29T06:18:41;46.35;;;39.72;;
16039;SDS011;8124;48.634;8.120;2023-05-29T06:23:44;47.92;;;39.22;;
16039;SDS011;8124;48.634;8.120;2023-05-29T06:28:47;48.45;;;38.83;;
16039;SDS011;8124;48.634;8.120;2023-05-29T06:33:51;44.35;;;38.63;;
16039;SDS011;8124;48.634;8.120;2023-05-29T06:38:55;44.78;;;38.83;;
16039;SDS011;8124;48.634;8.120;2023-05-29T06:43:58;44.97;;;38.35;;
16039;SDS011;8124;48.634;8.120;2023-05-29T06:49:03;45.58;;;39.35;;
16039;SDS011;8124;48.634;8.120;2023-05-29T06:54:07;44.03;;;38.58;;
16039;SDS011;8124;48.634;8.120;2023-05-29T06:59:12;45.20;;;38.92;;
16039;SDS011;8124;48.634;8.120;2023-05-29T07:04:18;45.25;;;38.78;;
16039;SDS011;8124;48.634;8.120;2023-05-29T07:09:21;47.72;;;39.20;;
16039;SDS011;8124;48.634;8.120;2023-05-29T07:14:25;44.22;;;38.97;;
16039;SDS011;8124;48.634;8.120;2023-05-29T07:19:30;43.50;;;38.38;;
16039;SDS011;8124;48.634;8.120;2023-05-29T07:24:35;44.90;;;39.03;;
16039;SDS011;8124;48.634;8.120;2023-05-29T07:29:39;45.65;;;38.72;;
16039;SDS011;8124;48.634;8.120;2023-05-29T07:34:44;45.88;;;39.10;;
16039;SDS011;8124;48.634;8.120;2023-05-29T07:39:48;44.90;;;39.17;;
16039;SDS011;8124;48.634;8.120;2023-05-29T07:45:12;46.25;;;39.17;;
16039;SDS011;8124;48.634;8.120;2023-05-29T07:50:17;44.63;;;39.53;;
16039;SDS011;8124;48.634;8.120;2023-05-29T07:55:21;44.53;;;39.65;;
16039;SDS011;8124;48.634;8.120;2023-05-29T08:00:24;44.95;;;39.22;;
16039;SDS011;8124;48.634;8.120;2023-05-29T08:05:29;45.70;;;39.75;;
16039;SDS011;8124;48.634;8.120;2023-05-29T08:10:35;48.08;;;39.47;;
16039;SDS011;8124;48.634;8.120;2023-05-29T08:15:38;49.15;;;39.40;;
16039;SDS011;8124;48.634;8.120;2023-05-29T08:20:43;50.20;;;39.30;;
16039;SDS011;8124;48.634;8.120;2023-05-29T08:25:46;48.60;;;39.47;;
16039;SDS011;8124;48.634;8.120;2023-05-29T08:30:49;47.90;;;39.95;;
16039;SDS011;8124;48.634;8.120;2023-05-29T08:35:53;45.78;;;39.70;;
16039;SDS011;8124;48.634;8.120;2023-05-29T08:40:56;46.78;;;39.40;;
16039;SDS011;8124;48.634;8.120;2023-05-29T08:46:00;46.33;;;39.60;;
16039;SDS011;8124;48.634;8.120;2023-05-29T08:51:06;47.75;;;40.17;;
16039;SDS011;8124;48.634;8.120;2023-05-29T08:56:10;46.42;;;39.72;;
16039;SDS011;8124;48.634;8.120;2023-05-29T09:01:30;45.33;;;40.33;;
16039;SDS011;8124;48.634;8.120;2023-05-29T09:06:35;45.80;;;39.80;;
16039;SDS011;8124;48.634;8.120;2023-05-29T09:11:39;46.20;;;39.80;;
16039;SDS011;8124;48.634;8.120;2023-05-29T09:16:42;45.53;;;40.05;;
16039;SDS011;8124;48.634;8.120;2023-05-29T09:21:47;45.40;;;39.83;;
16039;SDS011;8124;48.634;8.120;2023-05-29T09:26:50;46.30;;;40.13;;
16039;SDS011;8124;48.634;8.120;2023-05-29T09:31:53;49.33;;;40.10;;
16039;SDS011;8124;48.634;8.120;2023-05-29T09:37:02;47.85;;;40.25;;
16039;SDS011;8124;48.634;8.120;2023-05-29T09:42:09;45.40;;;40.47;;
16039;SDS011;8124;48.634;8.120;2023-05-29T09:47:13;45.20;;;40.33;;
16039;SDS011;8124;48.634;8.120;2023-05-29T09:52:21;45.53;;;40.58;;
16039;SDS011;8124;48.634;8.120;2023-05-29T09:57:25;46.92;;;40.45;;
16039;SDS011;8124;48.634;8.120;2023-05-29T10:02:30;46.60;;;41.60;;
16039;SDS011;8124;48.634;8.120;2023-05-29T10:07:36;45.53;;;40.42;;
16039;SDS011;8124;48.634;8.120;2023-05-29T10:12:44;46.40;;;40.85;;
16039;SDS011;8124;48.634;8.120;2023-05-29T10:17:50;46.50;;;41.03;;
16039;SDS011;8124;48.634;8.120;2023-05-29T10:23:00;45.85;;;40.47;;
16039;SDS011;8124;48.634;8.120;2023-05-29T10:28:07;45.25;;;40.35;;
16039;SDS011;8124;48.634;8.120;2023-05-29T10:38:52;47.67;;;40.45;;
16039;SDS011;8124;48.634;8.120;2023-05-29T10:43:55;46.00;;;40.45;;
16039;SDS011;8124;48.634;8.120;2023-05-29T10:48:59;46.40;;;40.92;;
16039;SDS011;8124;48.634;8.120;2023-05-29T10:54:06;45.70;;;40.53;;
16039;SDS011;8124;48.634;8.120;2023-05-29T10:59:10;47.58;;;41.00;;
16039;SDS011;8124;48.634;8.120;2023-05-29T11:09:40;46.65;;;40.55;;
16039;SDS011;8124;48.634;8.120;2023-05-29T11:14:47;48.47;;;41.63;;
16039;SDS011;8124;48.634;8.120;2023-05-29T11:19:55;47.78;;;41.40;;
16039;SDS011;8124;48.634;8.120;2023-05-29T11:25:00;49.25;;;41.08;;
16039;SDS011;8124;48.634;8.120;2023-05-29T11:30:06;45.03;;;40.17;;
16039;SDS011;8124;48.634;8.120;2023-05-29T11:35:10;46.15;;;41.13;;
16039;SDS011;8124;48.634;8.120;2023-05-29T11:40:15;47.80;;;41.83;;
16039;SDS011;8124;48.634;8.120;2023-05-29T11:45:19;46.88;;;41.83;;
16039;SDS011;8124;48.634;8.120;2023-05-29T11:50:23;48.45;;;41.70;;
16039;SDS011;8124;48.634;8.120;2023-05-29T11:55:30;48.95;;;41.80;;
16039;SDS011;8124;48.634;8.120;2023-05-29T12:00:33;48.83;;;41.65;;
16039;SDS011;8124;48.634;8.120;2023-05-29T12:05:47;49.55;;;41.70;;
16039;SDS011;8124;48.634;8.120;2023-05-29T12:10:56;48.53;;;41.22;;
16039;SDS011;8124;48.634;8.120;2023-05-29T12:16:00;61.10;;;44.08;;
16039;SDS011;8124;48.634;8.120;2023-05-29T12:21:05;46.88;;;41.17;;
16039;SDS011;8124;48.634;8.120;2023-05-29T12:26:10;46.80;;;41.67;;
16039;SDS011;8124;48.634;8.120;2023-05-29T12:36:48;46.58;;;41.47;;
16039;SDS011;8124;48.634;8.120;2023-05-29T12:41:53;47.05;;;41.75;;
16039;SDS011;8124;48.634;8.120;2023-05-29T12:46:56;46.88;;;41.83;;
16039;SDS011;8124;48.634;8.120;2023-05-29T12:52:04;48.42;;;41.50;;
16039;SDS011;8124;48.634;8.120;2023-05-29T12:57:10;46.80;;;41.38;;
16039;SDS011;8124;48.634;8.120;2023-05-29T13:02:14;46.83;;;41.72;;
16039;SDS011;8124;48.634;8.120;2023-05-29T13:07:18;48.22;;;41.53;;
16039;SDS011;8124;48.634;8.120;2023-05-29T13:12:22;47.13;;;41.95;;
16039;SDS011;8124;48.634;8.120;2023-05-29T13:17:25;46.67;;;41.67;;
16039;SDS011;8124;48.634;8.120;2023-05-29T13:22:28;46.25;;;41.33;;
16039;SDS011;8124;48.634;8.120;2023-05-29T13:27:34;47.03;;;41.92;;
16039;SDS011;8124;48.634;8.120;2023-05-29T13:32:38;47.33;;;41.90;;
16039;SDS011;8124;48.634;8.120;2023-05-29T13:37:41;47.35;;;41.88;;
16039;SDS011;8124;48.634;8.120;2023-05-29T13:42:46;47.50;;;41.97;;
16039;SDS011;8124;48.634;8.120;2023-05-29T13:47:49;47.58;;;42.13;;
16039;SDS011;8124;48.634;8.120;2023-05-29T13:52:52;51.50;;;41.42;;
16039;SDS011;8124;48.634;8.120;2023-05-29T13:57:57;46.22;;;41.30;;
16039;SDS011;8124;48.634;8.120;2023-05-29T14:03:00;50.92;;;41.80;;
16039;SDS011;8124;48.634;8.120;2023-05-29T14:08:03;47.78;;;41.97;;
16039;SDS011;8124;48.634;8.120;2023-05-29T14:13:07;46.03;;;41.03;;
16039;SDS011;8124;48.634;8.120;2023-05-29T14:18:11;46.38;;;41.20;;
16039;SDS011;8124;48.634;8.120;2023-05-29T14:23:14;49.33;;;42.55;;
16039;SDS011;8124;48.634;8.120;2023-05-29T14:28:18;48.25;;;43.05;;
16039;SDS011;8124;48.634;8.120;2023-05-29T14:33:22;45.95;;;41.05;;
16039;SDS011;8124;48.634;8.120;2023-05-29T14:38:26;47.17;;;42.08;;
16039;SDS011;8124;48.634;8.120;2023-05-29T14:43:30;47.20;;;42.00;;
16039;SDS011;8124;48.634;8.120;2023-05-29T14:48:33;46.50;;;41.53;;
16039;SDS011;8124;48.634;8.120;2023-05-29T14:53:36;46.42;;;41.35;;
16039;SDS011;8124;48.634;8.120;2023-05-29T14:58:41;46.03;;;41.13;;
16039;SDS011;8124;48.634;8.120;2023-05-29T15:03:44;46.55;;;41.55;;
16039;SDS011;8124;48.634;8.120;2023-05-29T15:08:47;46.92;;;41.53;;
16039;SDS011;8124;48.634;8.120;2023-05-29T15:13:53;46.30;;;41.30;;
16039;SDS011;8124;48.634;8.120;2023-05-29T15:18:56;46.63;;;41.25;;
16039;SDS011;8124;48.634;8.120;2023-05-29T15:23:59;47.45;;;42.35;;
16039;SDS011;8124;48.634;8.120;2023-05-29T15:29:03;48.33;;;41.53;;
16039;SDS011;8124;48.634;8.120;2023-05-29T15:34:07;47.05;;;41.40;;
16039;SDS011;8124;48.634;8.120;2023-05-29T15:39:10;61.70;;;43.45;;
16039;SDS011;8124;48.634;8.120;2023-05-29T15:44:14;46.83;;;41.72;;
16039;SDS011;8124;48.634;8.120;2023-05-29T15:49:17;46.65;;;41.55;;
16039;SDS011;8124;48.634;8.120;2023-05-29T15:54:20;46.35;;;41.28;;
16039;SDS011;8124;48.634;8.120;2023-05-29T15:59:24;47.22;;;42.03;;
16039;SDS011;8124;48.634;8.120;2023-05-29T16:04:28;46.28;;;41.28;;
16039;SDS011;8124;48.634;8.120;2023-05-29T16:09:32;47.15;;;41.92;;
16039;SDS011;8124;48.634;8.120;2023-05-29T16:14:37;46.55;;;41.60;;
16039;SDS011;8124;48.634;8.120;2023-05-29T16:19:40;46.60;;;41.50;;
16039;SDS011;8124;48.634;8.120;2023-05-29T16:24:45;46.90;;;41.85;;
16039;SDS011;8124;48.634;8.120;2023-05-29T16:29:49;47.75;;;42.10;;
16039;SDS011;8124;48.634;8.120;2023-05-29T16:34:52;47.42;;;42.17;;
16039;SDS011;8124;48.634;8.120;2023-05-29T16:39:55;46.42;;;41.42;;
16039;SDS011;8124;48.634;8.120;2023-05-29T16:45:01;46.35;;;41.25;;
16039;SDS011;8124;48.634;8.120;2023-05-29T16:50:05;46.65;;;41.70;;
16039;SDS011;8124;48.634;8.120;2023-05-29T16:55:09;46.30;;;41.20;;
16039;SDS011;8124;48.634;8.120;2023-05-29T17:00:13;46.45;;;41.05;;
16039;SDS011;8124;48.634;8.120;2023-05-29T17:05:17;47.83;;;41.40;;
16039;SDS011;8124;48.634;8.120;2023-05-29T17:10:20;46.35;;;41.35;;
16039;SDS011;8124;48.634;8.120;2023-05-29T17:15:25;46.47;;;41.50;;
16039;SDS011;8124;48.634;8.120;2023-05-29T17:20:30;46.20;;;41.20;;
16039;SDS011;8124;48.634;8.120;2023-05-29T17:25:34;49.38;;;41.83;;
16039;SDS011;8124;48.634;8.120;2023-05-29T17:30:39;47.95;;;41.53;;
16039;SDS011;8124;48.634;8.120;2023-05-29T17:35:42;46.75;;;41.65;;
16039;SDS011;8124;48.634;8.120;2023-05-29T17:40:46;45.67;;;40.75;;
16039;SDS011;8124;48.634;8.120;2023-05-29T17:45:50;46.58;;;41.58;;
16039;SDS011;8124;48.634;8.120;2023-05-29T17:50:54;46.42;;;41.50;;
16039;SDS011;8124;48.634;8.120;2023-05-29T17:55:57;46.15;;;41.17;;
16039;SDS011;8124;48.634;8.120;2023-05-29T18:01:04;46.70;;;41.70;;
16039;SDS011;8124;48.634;8.120;2023-05-29T18:06:08;46.15;;;41.10;;
16039;SDS011;8124;48.634;8.120;2023-05-29T18:11:11;46.72;;;41.75;;
16039;SDS011;8124;48.634;8.120;2023-05-29T18:16:16;46.83;;;41.83;;
16039;SDS011;8124;48.634;8.120;2023-05-29T18:21:20;46.75;;;41.78;;
16039;SDS011;8124;48.634;8.120;2023-05-29T18:26:24;45.95;;;40.95;;
16039;SDS011;8124;48.634;8.120;2023-05-29T18:31:30;46.10;;;41.20;;
16039;SDS011;8124;48.634;8.120;2023-05-29T18:36:33;46.08;;;41.08;;
16039;SDS011;8124;48.634;8.120;2023-05-29T18:41:36;45.88;;;40.85;;
16039;SDS011;8124;48.634;8.120;2023-05-29T18:46:40;45.78;;;40.85;;
16039;SDS011;8124;48.634;8.120;2023-05-29T18:51:44;46.35;;;41.45;;
16039;SDS011;8124;48.634;8.120;2023-05-29T18:56:46;46.03;;;41.03;;
16039;SDS011;8124;48.634;8.120;2023-05-29T19:01:51;46.53;;;41.17;;
16039;SDS011;8124;48.634;8.120;2023-05-29T19:06:54;54.25;;;41.83;;
16039;SDS011;8124;48.634;8.120;2023-05-29T19:11:58;45.42;;;40.47;;
16039;SDS011;8124;48.634;8.120;2023-05-29T19:17:02;46.88;;;40.47;;
16039;SDS011;8124;48.634;8.120;2023-05-29T19:22:08;45.50;;;40.63;;
16039;SDS011;8124;48.634;8.120;2023-05-29T19:27:11;45.72;;;40.70;;
16039;SDS011;8124;48.634;8.120;2023-05-29T19:32:16;46.33;;;41.22;;
16039;SDS011;8124;48.634;8.120;2023-05-29T19:37:21;45.42;;;40.35;;
16039;SDS011;8124;48.634;8.120;2023-05-29T19:42:24;45.80;;;40.80;;
16039;SDS011;8124;48.634;8.120;2023-05-29T19:47:29;46.35;;;41.15;;
16039;SDS011;8124;48.634;8.120;2023-05-29T19:52:32;45.75;;;40.78;;
16039;SDS011;8124;48.634;8.120;2023-05-29T19:57:36;47.05;;;41.95;;
16039;SDS011;8124;48.634;8.120;2023-05-29T20:02:40;47.08;;;42.03;;
16039;SDS011;8124;48.634;8.120;2023-05-29T20:07:43;46.65;;;41.63;;
16039;SDS011;8124;48.634;8.120;2023-05-29T20:12:46;45.72;;;40.50;;
16039;SDS011;8124;48.634;8.120;2023-05-29T20:17:51;46.35;;;41.35;;
16039;SDS011;8124;48.634;8.120;2023-05-29T20:22:57;45.97;;;41.05;;
16039;SDS011;8124;48.634;8.120;2023-05-29T20:28:00;45.90;;;40.90;;
16039;SDS011;8124;48.634;8.120;2023-05-29T20:33:04;49.00;;;41.10;;
16039;SDS011;8124;48.634;8.120;2023-05-29T20:38:11;45.75;;;40.85;;
16039;SDS011;8124;48.634;8.120;2023-05-29T20:43:15;45.45;;;40.55;;
16039;SDS011;8124;48.634;8.120;2023-05-29T20:48:24;46.05;;;41.05;;
16039;SDS011;8124;48.634;8.120;2023-05-29T20:53:27;45.28;;;40.38;;
16039;SDS011;8124;48.634;8.120;2023-05-29T20:58:30;45.65;;;40.75;;
16039;SDS011;8124;48.634;8.120;2023-05-29T21:03:34;45.63;;;40.50;;
16039;SDS011;8124;48.634;8.120;2023-05-29T21:08:37;47.17;;;40.95;;
16039;SDS011;8124;48.634;8.120;2023-05-29T21:13:40;45.47;;;40.58;;
16039;SDS011;8124;48.634;8.120;2023-05-29T21:18:45;45.85;;;40.55;;
16039;SDS011;8124;48.634;8.120;2023-05-29T21:23:48;45.28;;;40.25;;
16039;SDS011;8124;48.634;8.120;2023-05-29T21:28:52;46.17;;;40.70;;
16039;SDS011;8124;48.634;8.120;2023-05-29T21:33:57;46.20;;;40.45;;
16039;SDS011;8124;48.634;8.120;2023-05-29T21:39:00;45.38;;;40.42;;
16039;SDS011;8124;48.634;8.120;2023-05-29T21:44:03;45.10;;;40.20;;
16039;SDS011;8124;48.634;8.120;2023-05-29T21:49:10;45.38;;;40.47;;
16039;SDS011;8124;48.634;8.120;2023-05-29T21:54:13;45.45;;;40.55;;
16039;SDS011;8124;48.634;8.120;2023-05-29T21:59:16;45.65;;;40.70;;
16039;SDS011;8124;48.634;8.120;2023-05-29T22:04:20;45.10;;;40.20;;
16039;SDS011;8124;48.634;8.120;2023-05-29T22:09:23;44.92;;;40.03;;
16039;SDS011;8124;48.634;8.120;2023-05-29T22:14:26;44.70;;;39.90;;
16039;SDS011;8124;48.634;8.120;2023-05-29T22:19:31;45.92;;;40.92;;
16039;SDS011;8124;48.634;8.120;2023-05-29T22:24:35;45.58;;;40.67;;
16039;SDS011;8124;48.634;8.120;2023-05-29T22:29:38;46.00;;;40.97;;
16039;SDS011;8124;48.634;8.120;2023-05-29T22:34:42;45.45;;;40.15;;
16039;SDS011;8124;48.634;8.120;2023-05-29T22:39:45;46.10;;;41.20;;
16039;SDS011;8124;48.634;8.120;2023-05-29T22:44:48;44.60;;;39.70;;
16039;SDS011;8124;48.634;8.120;2023-05-29T22:49:53;45.50;;;40.60;;
16039;SDS011;8124;48.634;8.120;2023-05-29T22:54:57;45.15;;;40.17;;
16039;SDS011;8124;48.634;8.120;2023-05-29T23:00:00;44.45;;;39.65;;
16039;SDS011;8124;48.634;8.120;2023-05-29T23:05:11;45.17;;;39.72;;
16039;SDS011;8124;48.634;8.120;2023-05-29T23:10:15;44.92;;;40.03;;
16039;SDS011;8124;48.634;8.120;2023-05-29T23:15:18;45.03;;;40.13;;
16039;SDS011;8124;48.634;8.120;2023-05-29T23:20:23;44.70;;;39.80;;
16039;SDS011;8124;48.634;8.120;2023-05-29T23:25:27;45.05;;;40.17;;
16039;SDS011;8124;48.634;8.120;2023-05-29T23:30:30;46.13;;;40.03;;
16039;SDS011;8124;48.634;8.120;2023-05-29T23:35:34;48.60;;;40.60;;
16039;SDS011;8124;48.634;8.120;2023-05-29T23:40:37;45.85;;;40.17;;
16039;SDS011;8124;48.634;8.120;2023-05-29T23:45:40;45.28;;;39.65;;
16039;SDS011;8124;48.634;8.120;2023-05-29T23:50:44;46.97;;;40.17;;
16039;SDS011;8124;48.634;8.120;2023-05-29T23:55:47;44.22;;;38.95;;
